Time;durP1;ratioP1;P1;durP2;ratioP2;P2;SDS_P1;SDS_P2;PMS_P1;PMS_P2;Temp;Humidity;BMP_temperature;BMP_pressure;BME280_temperature;BME280_humidity;BME280_pressure;Samples;Min_cycle;Max_cycle;Signal;HPM_P1;HPM_P2
2023/09/27 00:04:46;;;;;;;6.13;5.53;;;;;;;19.19;71.14;100622.22;10351257;28;20045;-64
2023/09/27 00:09:48;;;;;;;5.22;4.80;;;;;;;19.18;71.50;100618.66;10350338;28;20049;-64
2023/09/27 00:14:52;;;;;;;;;;;;;;;19.18;71.69;100610.56;10347717;28;20112;-65
2023/09/27 00:19:54;;;;;;;6.20;5.60;;;;;;;19.12;71.60;100605.03;10353213;28;20427;-66
2023/09/27 00:24:56;;;;;;;6.70;6.18;;;;;;;19.07;71.63;100603.69;10351988;28;20060;-67
2023/09/27 00:29:58;;;;;;;6.18;5.68;;;;;;;19.02;71.85;100603.34;10351838;28;20424;-64
2023/09/27 00:35:00;;;;;;;6.05;5.55;;;;;;;19.00;71.57;100609.94;10353842;28;20037;-66
2023/09/27 00:40:03;;;;;;;6.93;5.90;;;;;;;18.98;71.97;100610.09;10407720;28;20052;-64
2023/09/27 00:45:06;;;;;;;6.07;5.57;;;;;;;18.96;71.56;100613.97;10347724;28;20065;-63
2023/09/27 00:50:09;;;;;;;6.97;6.15;;;;;;;18.88;71.67;100604.03;10347089;28;20060;-65
2023/09/27 00:55:12;;;;;;;6.72;6.13;;;;;;;18.85;71.94;100598.94;10309664;28;20050;-66
2023/09/27 01:00:14;;;;;;;8.05;6.70;;;;;;;18.78;71.97;100587.16;10303331;28;20137;-65
2023/09/27 01:05:18;;;;;;;6.28;5.68;;;;;;;18.73;72.00;100584.97;10311053;28;20065;-64
2023/09/27 01:10:20;;;;;;;6.95;6.22;;;;;;;18.54;72.50;100559.19;10344360;28;20139;-66
2023/09/27 01:15:21;;;;;;;7.80;6.93;;;;;;;18.50;72.79;100572.16;10348324;28;20045;-66
2023/09/27 01:20:24;;;;;;;6.97;6.35;;;;;;;18.27;72.66;100557.63;10349179;28;20053;-63
2023/09/27 01:25:36;;;;;;;7.57;6.80;;;;;;;18.34;73.47;100572.13;10337793;28;20054;-65
2023/09/27 01:30:38;;;;;;;6.80;6.20;;;;;;;18.36;73.24;100573.66;10346523;28;20419;-64
2023/09/27 01:35:42;;;;;;;8.27;7.55;;;;;;;18.34;72.65;100581.06;10345584;28;20611;-64
2023/09/27 01:40:44;;;;;;;8.45;7.32;;;;;;;18.34;72.86;100588.31;10350659;28;20159;-65
2023/09/27 01:45:46;;;;;;;7.32;6.60;;;;;;;18.34;73.20;100580.22;10326115;28;20064;-65
2023/09/27 01:50:48;;;;;;;8.38;7.57;;;;;;;18.23;73.47;100561.69;10342649;28;20053;-64
2023/09/27 01:55:49;;;;;;;8.32;7.45;;;;;;;18.21;73.61;100556.47;10343674;28;20261;-65
2023/09/27 02:00:51;;;;;;;7.45;6.85;;;;;;;18.05;74.05;100564.53;10342453;28;20509;-64
2023/09/27 02:05:52;;;;;;;8.70;7.93;;;;;;;18.00;74.48;100565.00;10342271;28;20139;-65
2023/09/27 02:10:54;;;;;;;7.20;6.60;;;;;;;18.00;74.94;100567.72;10342120;28;20060;-65
2023/09/27 02:15:55;;;;;;;7.95;7.05;;;;;;;18.00;74.84;100567.72;10343549;28;20351;-64
2023/09/27 02:20:57;;;;;;;7.63;6.93;;;;;;;17.99;75.02;100574.94;10334440;28;20060;-66
2023/09/27 02:25:58;;;;;;;9.50;7.35;;;;;;;17.96;74.40;100590.59;10346225;28;20607;-65
2023/09/27 02:31:00;;;;;;;9.23;7.18;;;;;;;17.94;74.87;100590.75;10341163;28;20049;-66
2023/09/27 02:36:01;;;;;;;8.52;7.20;;;;;;;17.94;75.00;100590.75;10342374;28;20052;-66
2023/09/27 02:41:04;;;;;;;7.13;6.53;;;;;;;17.86;75.08;100593.38;10342759;28;20196;-64
2023/09/27 02:46:06;;;;;;;7.00;6.40;;;;;;;17.90;74.98;100610.09;10340506;28;20064;-65
2023/09/27 02:51:08;;;;;;;7.78;7.03;;;;;;;17.89;75.76;100620.00;10341736;28;20553;-65
2023/09/27 02:56:11;;;;;;;7.72;7.03;;;;;;;17.80;75.46;100632.53;10340506;28;20290;-65
2023/09/27 03:01:12;;;;;;;8.53;7.73;;;;;;;17.77;75.79;100637.41;10344441;28;20071;-64
2023/09/27 03:06:14;;;;;;;6.95;6.25;;;;;;;17.72;75.72;100637.06;10339780;28;20048;-65
2023/09/27 03:11:17;;;;;;;8.23;6.75;;;;;;;17.66;74.34;100636.69;10345056;28;20053;-64
2023/09/27 03:16:20;;;;;;;8.75;7.90;;;;;;;17.42;75.64;100636.56;10332275;28;20073;-66
2023/09/27 03:21:21;;;;;;;10.18;8.75;;;;;;;17.48;75.34;100633.25;10348385;28;20852;-65
2023/09/27 03:26:23;;;;;;;8.88;8.00;;;;;;;17.54;75.76;100637.97;10348251;28;20604;-65
2023/09/27 03:31:25;;;;;;;9.10;8.30;;;;;;;17.57;75.69;100647.59;10356463;28;20060;-66
2023/09/27 03:36:26;;;;;;;8.57;7.88;;;;;;;17.56;75.42;100657.50;10392462;28;20064;-65
2023/09/27 03:41:27;;;;;;;8.80;8.00;;;;;;;17.57;75.64;100671.81;10363533;28;20481;-63
2023/09/27 03:46:30;;;;;;;9.85;8.85;;;;;;;17.56;75.46;100681.72;10337042;28;20057;-65
2023/09/27 03:51:31;;;;;;;9.85;9.05;;;;;;;17.36;76.16;100666.81;10327815;28;20149;-65
2023/09/27 03:56:32;;;;;;;10.00;9.05;;;;;;;17.41;75.78;100661.78;10345559;28;20083;-65
2023/09/27 04:01:34;;;;;;;9.73;8.73;;;;;;;17.44;76.15;100661.47;10349644;28;20123;-67
2023/09/27 04:06:36;;;;;;;10.98;10.07;;;;;;;17.47;76.09;100640.47;10347144;28;20042;-65
2023/09/27 04:11:37;;;;;;;12.23;10.63;;;;;;;17.41;76.17;100605.28;10351462;28;20056;-64
2023/09/27 04:16:39;;;;;;;11.18;10.07;;;;;;;17.39;76.77;100610.81;10346613;28;20076;-65
2023/09/27 04:21:40;;;;;;;11.30;10.30;;;;;;;17.31;77.14;100622.38;10349410;28;20046;-64
2023/09/27 04:26:42;;;;;;;11.02;10.05;;;;;;;17.29;76.04;100602.88;10332522;28;20147;-65
2023/09/27 04:31:44;;;;;;;11.63;10.52;;;;;;;17.27;76.46;100595.94;10342804;28;20981;-65
2023/09/27 04:36:45;;;;;;;12.50;11.32;;;;;;;17.13;75.80;100602.78;10307836;28;20221;-68
2023/09/27 04:41:47;;;;;;;12.20;11.00;;;;;;;17.02;75.71;100633.41;10306039;28;20054;-65
2023/09/27 04:46:48;;;;;;;10.65;9.68;;;;;;;16.90;77.61;100630.16;10310852;28;20712;-66
2023/09/27 04:51:49;;;;;;;10.88;9.77;;;;;;;16.93;76.63;100627.16;10303807;28;20057;-64
2023/09/27 04:56:52;;;;;;;11.00;10.00;;;;;;;16.98;77.09;100626.69;10305233;28;20069;-64
2023/09/27 05:01:53;;;;;;;10.48;9.57;;;;;;;16.95;77.31;100625.16;10306188;28;20443;-64
2023/09/27 05:06:55;;;;;;;11.98;10.75;;;;;;;16.83;78.34;100601.31;10302963;28;21130;-67
2023/09/27 05:11:56;;;;;;;11.00;10.00;;;;;;;17.02;76.62;100643.34;10294204;28;20068;-65
2023/09/27 05:16:58;;;;;;;10.70;9.77;;;;;;;16.97;76.86;100641.13;10301906;28;20141;-68
2023/09/27 05:21:59;;;;;;;11.85;10.07;;;;;;;16.92;76.73;100638.06;10306630;28;20132;-68
2023/09/27 05:27:03;;;;;;;9.95;9.15;;;;;;;16.89;77.58;100641.91;10304985;28;20045;-67
2023/09/27 05:32:05;;;;;;;9.45;8.55;;;;;;;16.84;76.74;100651.41;10307315;28;20119;-65
2023/09/27 05:37:06;;;;;;;9.57;8.45;;;;;;;16.80;77.04;100658.94;10305880;28;20058;-64
2023/09/27 05:42:08;;;;;;;10.77;9.77;;;;;;;16.80;76.93;100656.25;10303456;28;20553;-65
2023/09/27 05:47:09;;;;;;;9.82;9.02;;;;;;;16.77;76.63;100670.84;10302880;28;20101;-64
2023/09/27 05:52:12;;;;;;;10.10;9.02;;;;;;;16.68;77.16;100670.91;10305133;28;20157;-64
2023/09/27 05:57:14;;;;;;;10.43;9.43;;;;;;;16.79;76.62;100689.50;10304737;28;20136;-66
2023/09/27 06:02:20;;;;;;;11.38;9.48;;;;;;;16.82;76.54;100681.13;10302914;28;20139;-65
2023/09/27 06:07:22;;;;;;;10.27;9.25;;;;;;;16.80;77.39;100683.13;10302724;28;20046;-63
2023/09/27 06:12:25;;;;;;;14.35;10.52;;;;;;;16.92;77.18;100671.19;10306016;28;20149;-66
2023/09/27 06:17:27;;;;;;;11.02;9.73;;;;;;;17.09;77.21;100671.31;10304716;28;20613;-64
2023/09/27 06:22:28;;;;;;;10.43;9.52;;;;;;;17.22;77.12;100676.28;10299224;28;20429;-65
2023/09/27 06:27:30;;;;;;;11.30;10.20;;;;;;;17.08;76.33;100638.19;10297426;28;20061;-62
2023/09/27 06:32:31;;;;;;;11.18;10.15;;;;;;;17.36;76.04;100669.50;10297694;28;20047;-63
2023/09/27 06:37:33;;;;;;;14.90;10.45;;;;;;;17.58;76.18;100687.81;10301401;28;20523;-66
2023/09/27 06:42:34;;;;;;;11.55;10.38;;;;;;;17.72;75.64;100678.28;10284079;28;20837;-64
2023/09/27 06:47:38;;;;;;;12.13;10.93;;;;;;;17.59;74.65;100659.88;10293172;28;21690;-63
2023/09/27 06:52:40;;;;;;;11.00;9.82;;;;;;;17.59;76.25;100661.72;10292674;28;20152;-64
2023/09/27 06:57:44;;;;;;;11.05;9.52;;;;;;;17.80;76.12;100664.03;10299048;28;20389;-62
2023/09/27 07:02:47;;;;;;;;;;;;;;;17.95;75.59;100666.97;10306302;28;20060;-63
2023/09/27 07:07:50;;;;;;;10.50;8.93;;;;;;;18.09;74.61;100652.06;10307874;28;19952;-64
2023/09/27 07:12:52;;;;;;;10.13;9.10;;;;;;;18.00;74.59;100622.41;10309847;28;20050;-65
2023/09/27 07:17:53;;;;;;;9.23;7.68;;;;;;;18.24;75.04;100661.22;10306364;28;20073;-63
2023/09/27 07:22:56;;;;;;;7.53;6.93;;;;;;;18.29;74.15;100653.47;10304068;28;20404;-65
2023/09/27 07:27:58;;;;;;;9.27;7.28;;;;;;;18.11;74.77;100633.91;10303889;28;20058;-64
2023/09/27 07:33:00;;;;;;;10.15;7.60;;;;;;;18.55;74.17;100671.38;10300761;28;20117;-65
2023/09/27 07:38:01;;;;;;;8.13;6.47;;;;;;;18.65;72.91;100653.22;10305242;28;20083;-64
2023/09/27 07:43:03;;;;;;;8.15;7.10;;;;;;;18.89;71.97;100656.97;10303240;28;20124;-67
2023/09/27 07:48:05;;;;;;;8.02;7.22;;;;;;;19.00;71.97;100651.22;10303391;28;20060;-66
2023/09/27 07:53:08;;;;;;;8.47;7.33;;;;;;;18.96;71.36;100654.44;10302382;28;20144;-64
2023/09/27 07:58:12;;;;;;;8.13;7.43;;;;;;;19.11;72.16;100662.69;10307492;28;20145;-64
2023/09/27 08:03:14;;;;;;;7.57;5.63;;;;;;;19.29;72.32;100671.47;10316390;28;20667;-65
2023/09/27 08:08:16;;;;;;;6.73;6.03;;;;;;;19.52;71.90;100670.75;10302486;28;20062;-65
2023/09/27 08:13:18;;;;;;;7.07;6.10;;;;;;;19.76;71.31;100677.94;10304748;28;20333;-65
2023/09/27 08:18:19;;;;;;;6.75;6.07;;;;;;;20.04;70.60;100681.09;10305584;28;20660;-65
2023/09/27 08:23:22;;;;;;;6.93;6.00;;;;;;;20.09;69.46;100657.06;10306110;28;20099;-67
2023/09/27 08:28:23;;;;;;;7.38;6.57;;;;;;;20.27;68.82;100648.69;10302086;28;20069;-67
2023/09/27 08:33:26;;;;;;;7.30;6.32;;;;;;;20.18;68.45;100632.72;10301791;28;20057;-66
2023/09/27 08:38:27;;;;;;;7.95;7.25;;;;;;;20.47;67.53;100659.91;10305425;28;20046;-66
2023/09/27 08:43:32;;;;;;;7.25;6.63;;;;;;;20.65;67.61;100670.47;10302156;28;20096;-65
2023/09/27 08:48:35;;;;;;;7.50;6.63;;;;;;;20.92;66.98;100673.66;10302191;28;20050;-65
2023/09/27 08:53:38;;;;;;;7.25;5.90;;;;;;;20.85;66.04;100623.97;10301197;28;20046;-65
2023/09/27 08:58:40;;;;;;;;;;;;;;;21.36;64.75;100658.53;10302686;28;20440;-65
2023/09/27 09:03:42;;;;;;;8.48;6.75;;;;;;;21.50;64.63;100641.50;10301671;28;20014;-65
2023/09/27 09:08:46;;;;;;;10.18;7.00;;;;;;;21.53;64.06;100637.59;10301670;28;20065;-65
2023/09/27 09:13:59;;;;;;;7.68;6.88;;;;;;;21.86;63.04;100632.63;10300634;28;20105;-64
2023/09/27 09:19:19;;;;;;;9.32;7.38;;;;;;;22.04;62.14;100628.69;10342601;28;20190;-65
2023/09/27 09:24:42;;;;;;;6.57;5.97;;;;;;;22.39;62.04;100631.63;10326330;28;20057;-65
2023/09/27 09:29:48;;;;;;;8.57;6.07;;;;;;;22.72;58.88;100614.84;10338618;28;20069;-64
2023/09/27 09:34:53;;;;;;;7.38;5.22;;;;;;;22.97;59.29;100600.84;10323537;28;20080;-66
2023/09/27 09:40:14;;;;;;;6.05;5.45;;;;;;;23.22;56.80;100593.94;10341450;28;20342;-66
2023/09/27 09:45:17;;;;;;;8.23;5.55;;;;;;;23.47;57.14;100597.03;10301902;28;20453;-65
2023/09/27 09:50:18;;;;;;;5.20;4.68;;;;;;;23.68;56.29;100592.56;10312621;28;20050;-65
2023/09/27 09:55:23;;;;;;;6.10;5.45;;;;;;;23.96;55.81;100605.22;10300060;28;20058;-65
2023/09/27 10:00:49;;;;;;;8.00;5.25;;;;;;;24.20;54.27;100592.13;10301400;28;21862;-67
2023/09/27 10:05:53;;;;;;;8.70;4.90;;;;;;;24.34;55.04;100591.13;10301608;28;20049;-66
2023/09/27 10:10:55;;;;;;;5.90;4.57;;;;;;;24.27;54.64;100595.72;10304134;28;20058;-69
2023/09/27 10:15:57;;;;;;;6.82;4.50;;;;;;;24.46;54.80;100597.63;10303700;28;20856;-65
2023/09/27 10:21:05;;;;;;;6.28;5.65;;;;;;;24.87;53.50;100603.97;10301673;28;20058;-66
2023/09/27 10:26:28;;;;;;;5.10;4.40;;;;;;;25.22;51.35;100601.88;10293712;28;20627;-67
2023/09/27 10:31:32;;;;;;;4.78;4.38;;;;;;;25.35;51.77;100592.84;10300858;28;20640;-66
2023/09/27 10:36:33;;;;;;;6.35;4.97;;;;;;;25.52;51.22;100576.03;10297736;28;20060;-66
2023/09/27 10:41:38;;;;;;;5.63;4.03;;;;;;;25.88;51.29;100580.97;10298940;28;20054;-66
2023/09/27 10:46:48;;;;;;;6.07;3.47;;;;;;;25.82;51.13;100575.50;10296880;28;20568;-65
2023/09/27 10:51:51;;;;;;;5.15;4.10;;;;;;;26.15;50.00;100569.09;10299969;28;20123;-65
2023/09/27 10:56:57;;;;;;;5.47;4.63;;;;;;;26.45;49.12;100564.69;10300266;28;20476;-66
2023/09/27 11:02:07;;;;;;;6.28;4.18;;;;;;;26.37;50.08;100562.22;10300023;28;20050;-66
2023/09/27 11:07:09;;;;;;;5.30;4.03;;;;;;;26.33;50.11;100565.63;10299862;28;20042;-66
2023/09/27 11:12:10;;;;;;;7.85;4.45;;;;;;;25.88;49.73;100558.28;10305068;28;21489;-66
2023/09/27 11:17:22;;;;;;;4.18;3.75;;;;;;;25.51;50.71;100541.69;10303218;28;20958;-65
2023/09/27 11:22:25;;;;;;;4.30;3.30;;;;;;;26.05;50.95;100540.41;10315442;28;20060;-67
2023/09/27 11:27:26;;;;;;;4.15;3.75;;;;;;;26.69;49.30;100534.91;10320707;28;20054;-67
2023/09/27 11:32:28;;;;;;;3.87;3.57;;;;;;;27.28;49.06;100529.09;10332529;28;20097;-67
2023/09/27 11:37:29;;;;;;;5.35;4.05;;;;;;;28.01;46.14;100511.81;10333637;28;20064;-66
2023/09/27 11:42:31;;;;;;;4.50;4.10;;;;;;;28.67;44.34;100513.75;10337160;28;20598;-65
2023/09/27 11:47:45;;;;;;;5.13;3.70;;;;;;;29.31;42.59;100489.16;10344673;28;20057;-67
2023/09/27 11:52:46;;;;;;;5.78;3.65;;;;;;;29.89;41.78;100487.31;10343463;28;20540;-64
2023/09/27 11:57:48;;;;;;;4.47;3.55;;;;;;;30.19;40.70;100480.72;10326855;28;20045;-67
2023/09/27 12:02:51;;;;;;;4.33;3.97;;;;;;;30.47;39.63;100470.75;10341141;28;20057;-66
2023/09/27 12:07:58;;;;;;;5.68;3.30;;;;;;;30.85;38.27;100472.69;10324507;28;20061;-67
2023/09/27 12:13:00;;;;;;;4.05;3.50;;;;;;;31.16;38.68;100455.78;10326500;28;20976;-64
2023/09/27 12:18:02;;;;;;;3.60;2.93;;;;;;;31.67;38.29;100434.41;10337559;28;20163;-67
2023/09/27 12:23:03;;;;;;;;;;;;;;;32.42;35.27;100434.50;10343600;28;20698;-67
2023/09/27 12:28:05;;;;;;;4.63;3.00;;;;;;;33.60;34.13;100414.09;10341811;28;20274;-67
2023/09/27 12:33:07;;;;;;;;;;;;;;;34.17;31.03;100418.56;10337924;28;20049;-66
2023/09/27 12:38:10;;;;;;;3.40;3.05;;;;;;;33.80;32.87;100403.09;10334065;28;20026;-66
2023/09/27 12:43:11;;;;;;;4.18;2.70;;;;;;;33.74;32.00;100408.91;10339985;28;20566;-66
2023/09/27 12:48:13;;;;;;;3.58;2.75;;;;;;;33.65;31.67;100368.03;10334908;28;20500;-66
2023/09/27 12:53:14;;;;;;;3.55;3.20;;;;;;;33.89;31.92;100369.44;10338203;28;20057;-66
2023/09/27 12:58:16;;;;;;;;;;;;;;;34.23;31.33;100363.31;10339083;28;20053;-66
2023/09/27 13:03:17;;;;;;;2.90;2.20;;;;;;;34.53;31.80;100365.22;10324943;28;21456;-65
2023/09/27 13:08:19;;;;;;;3.88;2.60;;;;;;;34.76;31.26;100371.22;10341974;28;20411;-66
2023/09/27 13:13:20;;;;;;;3.78;3.08;;;;;;;35.09;30.01;100355.88;10339728;28;20152;-67
2023/09/27 13:18:22;;;;;;;2.63;2.42;;;;;;;35.16;28.52;100345.31;10340913;28;20053;-67
2023/09/27 13:23:23;;;;;;;2.30;1.90;;;;;;;35.12;28.58;100343.41;10337122;28;20061;-66
2023/09/27 13:28:25;;;;;;;3.28;1.88;;;;;;;35.56;27.94;100354.47;10336839;28;20057;-66
2023/09/27 13:33:27;;;;;;;4.13;2.20;;;;;;;36.07;27.62;100336.59;10298914;28;20160;-64
2023/09/27 13:38:29;;;;;;;2.35;2.13;;;;;;;36.60;26.04;100319.16;10296222;28;20061;-64
2023/09/27 13:43:32;;;;;;;2.35;2.08;;;;;;;36.76;26.61;100302.34;10298408;28;20491;-66
2023/09/27 13:48:34;;;;;;;3.45;2.42;;;;;;;38.05;24.21;100316.97;10298506;28;20397;-63
2023/09/27 13:53:35;;;;;;;2.67;2.20;;;;;;;36.04;28.07;100309.50;10295160;28;20526;-64
2023/09/27 13:58:39;;;;;;;2.97;2.00;;;;;;;34.43;28.68;100310.00;10301569;28;20217;-65
2023/09/27 14:03:40;;;;;;;3.08;2.22;;;;;;;33.39;29.81;100298.22;10293616;28;20046;-66
2023/09/27 14:08:42;;;;;;;3.22;1.95;;;;;;;32.83;31.60;100300.81;10299489;28;20115;-65
2023/09/27 14:13:45;;;;;;;2.70;1.90;;;;;;;32.13;31.43;100293.63;10296750;28;20581;-65
2023/09/27 14:18:46;;;;;;;3.20;1.88;;;;;;;31.51;32.29;100290.38;10295535;28;20069;-65
2023/09/27 14:23:48;;;;;;;;;;;;;;;30.89;33.89;100290.81;10294188;28;20058;-64
2023/09/27 14:28:50;;;;;;;;;;;;;;;30.51;36.85;100276.94;10294835;28;19933;-64
2023/09/27 14:33:51;;;;;;;3.23;1.77;;;;;;;30.13;35.61;100273.09;10293721;28;19985;-66
2023/09/27 14:39:01;;;;;;;;;;;;;;;29.70;34.76;100263.66;10288164;28;20057;-65
2023/09/27 14:44:02;;;;;;;2.95;2.20;;;;;;;29.36;36.05;100258.97;10295580;28;19921;-65
2023/09/27 14:49:04;;;;;;;1.60;1.50;;;;;;;29.05;36.65;100266.66;10295646;28;20051;-63
2023/09/27 14:54:06;;;;;;;2.22;1.80;;;;;;;28.74;35.93;100251.53;10302022;28;20118;-64
2023/09/27 14:59:07;;;;;;;2.47;1.85;;;;;;;28.41;36.59;100242.09;10281379;28;20913;-65
2023/09/27 15:04:09;;;;;;;3.23;2.37;;;;;;;28.14;37.63;100231.69;10285628;28;20050;-64
2023/09/27 15:09:11;;;;;;;3.80;2.20;;;;;;;27.95;37.78;100232.84;10283390;28;20042;-64
2023/09/27 15:14:12;;;;;;;2.58;2.38;;;;;;;27.77;38.49;100229.16;10294456;28;20184;-62
2023/09/27 15:19:14;;;;;;;4.68;2.50;;;;;;;27.56;38.50;100235.25;10298539;28;20050;-63
2023/09/27 15:24:15;;;;;;;3.93;1.90;;;;;;;27.33;39.74;100213.09;10317076;28;20053;-63
2023/09/27 15:29:18;;;;;;;2.42;2.22;;;;;;;27.22;40.09;100218.50;10300079;28;20050;-64
2023/09/27 15:34:20;;;;;;;3.42;2.47;;;;;;;27.14;40.38;100222.41;10305129;28;20050;-63
2023/09/27 15:39:24;;;;;;;4.70;2.45;;;;;;;27.07;41.49;100216.22;10298865;28;20043;-63
2023/09/27 15:44:25;;;;;;;3.50;2.30;;;;;;;26.98;41.01;100213.03;10300421;28;20736;-64
2023/09/27 15:49:26;;;;;;;2.72;2.38;;;;;;;26.89;41.48;100217.13;10301072;28;20109;-65
2023/09/27 15:54:28;;;;;;;3.10;2.30;;;;;;;26.68;41.55;100221.19;10297995;28;20575;-65
2023/09/27 15:59:29;;;;;;;2.58;2.38;;;;;;;26.59;42.14;100215.22;10300247;28;21063;-64
2023/09/27 16:04:34;;;;;;;3.57;2.23;;;;;;;26.47;41.90;100212.44;10298732;28;20082;-65
2023/09/27 16:09:51;;;;;;;5.68;3.83;;;;;;;26.32;42.16;100211.97;10341914;28;20380;-65
2023/09/27 16:14:53;;;;;;;3.95;2.83;;;;;;;26.26;42.60;100211.00;10338603;28;20377;-66
2023/09/27 16:19:54;;;;;;;4.10;2.85;;;;;;;26.11;43.29;100201.31;10342239;28;20057;-66
2023/09/27 16:24:56;;;;;;;4.30;2.53;;;;;;;26.03;43.63;100184.41;10338533;28;20224;-66
2023/09/27 16:29:58;;;;;;;3.83;2.70;;;;;;;25.99;44.37;100199.56;10331477;28;20049;-66
2023/09/27 16:35:00;;;;;;;5.47;2.87;;;;;;;25.89;44.88;100200.88;10299656;28;20425;-65
2023/09/27 16:40:03;;;;;;;4.38;2.63;;;;;;;25.81;44.93;100211.28;10295315;28;20057;-66
2023/09/27 16:45:06;;;;;;;5.82;2.92;;;;;;;25.66;45.97;100207.00;10301683;28;20125;-66
2023/09/27 16:50:09;;;;;;;5.25;3.10;;;;;;;25.61;46.13;100217.72;10301520;28;20093;-65
2023/09/27 16:55:11;;;;;;;4.68;3.17;;;;;;;25.46;46.36;100214.50;10298844;28;20054;-67
2023/09/27 17:00:13;;;;;;;5.80;3.72;;;;;;;25.40;47.09;100225.25;10299192;28;20340;-64
2023/09/27 17:05:14;;;;;;;4.77;3.07;;;;;;;25.30;48.16;100230.34;10302769;28;20072;-66
2023/09/27 17:10:16;;;;;;;5.00;4.50;;;;;;;25.11;48.74;100228.59;10300433;28;20716;-65
2023/09/27 17:15:19;;;;;;;6.57;4.32;;;;;;;24.99;50.17;100234.72;10315023;28;20425;-67
2023/09/27 17:20:21;;;;;;;5.35;4.22;;;;;;;24.82;50.69;100217.25;10304198;28;20090;-66
2023/09/27 17:25:23;;;;;;;4.82;3.95;;;;;;;24.81;51.21;100238.16;10305148;28;20050;-68
2023/09/27 17:30:25;;;;;;;5.18;4.68;;;;;;;24.53;51.63;100200.44;10303550;28;20140;-66
2023/09/27 17:35:26;;;;;;;5.05;4.65;;;;;;;24.60;51.80;100227.63;10315169;28;21643;-67
2023/09/27 17:40:28;;;;;;;5.72;4.90;;;;;;;24.48;52.03;100224.72;10324917;28;20053;-67
2023/09/27 17:45:29;;;;;;;5.95;5.38;;;;;;;24.42;52.63;100233.72;10333060;28;20050;-66
2023/09/27 17:50:31;;;;;;;5.55;4.60;;;;;;;24.26;52.53;100222.28;10367664;28;20041;-67
2023/09/27 17:55:33;;;;;;;5.28;4.53;;;;;;;24.23;53.96;100230.03;10357181;28;20053;-66
2023/09/27 18:00:34;;;;;;;6.18;5.50;;;;;;;24.11;54.59;100218.97;10345223;28;20239;-65
2023/09/27 18:05:36;;;;;;;5.90;4.82;;;;;;;24.03;54.60;100214.59;10339516;28;20056;-66
2023/09/27 18:10:37;;;;;;;6.82;4.75;;;;;;;24.00;54.62;100215.03;10322439;28;20130;-66
2023/09/27 18:15:39;;;;;;;5.80;5.25;;;;;;;23.93;55.77;100220.50;10338664;28;20045;-67
2023/09/27 18:20:41;;;;;;;5.93;5.32;;;;;;;23.87;56.09;100215.91;10334635;28;20182;-66
2023/09/27 18:25:42;;;;;;;5.10;4.65;;;;;;;23.78;56.61;100207.09;10341010;28;20167;-67
2023/09/27 18:30:44;;;;;;;6.38;5.60;;;;;;;23.73;56.77;100216.94;10341886;28;20053;-66
2023/09/27 18:35:46;;;;;;;6.25;5.65;;;;;;;23.60;57.52;100205.03;10322529;28;20388;-67
2023/09/27 18:40:48;;;;;;;7.70;6.15;;;;;;;23.45;58.14;100196.28;10336813;28;20057;-67
2023/09/27 18:45:49;;;;;;;6.57;5.22;;;;;;;23.48;58.96;100212.16;10321660;28;20053;-66
2023/09/27 18:50:51;;;;;;;6.47;5.68;;;;;;;23.39;59.35;100202.53;10336361;28;20531;-66
2023/09/27 18:55:52;;;;;;;8.52;6.72;;;;;;;23.30;59.36;100201.94;10346144;28;20405;-66
2023/09/27 19:00:54;;;;;;;7.60;6.90;;;;;;;23.30;60.03;100215.50;10329177;28;20127;-63
2023/09/27 19:05:55;;;;;;;7.32;6.60;;;;;;;23.19;59.91;100225.06;10307309;28;20057;-66
2023/09/27 19:10:57;;;;;;;8.27;7.47;;;;;;;23.16;60.81;100222.78;10312088;28;20054;-64
2023/09/27 19:15:58;;;;;;;6.72;6.13;;;;;;;23.10;61.16;100226.31;10307744;28;20149;-66
2023/09/27 19:21:00;;;;;;;10.35;7.97;;;;;;;23.00;61.37;100223.13;10311363;28;20645;-65
2023/09/27 19:26:01;;;;;;;9.35;8.18;;;;;;;22.90;62.27;100218.94;10304573;28;20153;-66
2023/09/27 19:31:03;;;;;;;9.55;8.45;;;;;;;22.80;62.70;100202.22;10304765;28;20053;-65
2023/09/27 19:36:04;;;;;;;9.55;7.90;;;;;;;22.81;62.81;100219.34;10305223;28;20151;-66
2023/09/27 19:41:06;;;;;;;9.70;8.07;;;;;;;22.74;62.39;100228.31;10302797;28;20057;-65
2023/09/27 19:46:07;;;;;;;11.50;9.38;;;;;;;22.59;62.81;100214.06;10304237;28;20141;-64
2023/09/27 19:51:25;;;;;;;10.60;9.60;;;;;;;22.59;63.84;100235.75;10308123;28;20571;-65
2023/09/27 19:56:27;;;;;;;10.65;9.25;;;;;;;22.51;63.93;100231.34;10303279;28;20337;-63
2023/09/27 20:01:34;;;;;;;9.30;8.32;;;;;;;22.46;63.91;100224.84;10298188;28;20054;-63
2023/09/27 20:06:38;;;;;;;10.80;8.45;;;;;;;22.40;64.29;100229.25;10295249;28;20054;-67
2023/09/27 20:11:40;;;;;;;10.32;9.35;;;;;;;22.33;64.61;100228.38;10296810;28;20656;-65
2023/09/27 20:16:42;;;;;;;9.60;8.80;;;;;;;22.27;64.63;100237.28;10301383;28;20049;-67
2023/09/27 20:21:43;;;;;;;9.77;8.80;;;;;;;22.16;64.71;100223.25;10301257;28;20401;-65
2023/09/27 20:26:44;;;;;;;9.77;8.82;;;;;;;22.15;65.17;100234.28;10303253;28;20050;-67
2023/09/27 20:31:46;;;;;;;10.45;9.35;;;;;;;22.08;65.83;100239.66;10301421;28;20152;-66
2023/09/27 20:36:47;;;;;;;9.75;8.70;;;;;;;22.02;66.46;100245.88;10302493;28;20097;-65
2023/09/27 20:41:49;;;;;;;11.88;10.77;;;;;;;21.95;66.48;100236.84;10299759;28;20086;-65
2023/09/27 20:46:51;;;;;;;11.90;9.90;;;;;;;21.86;66.31;100231.63;10302148;28;20457;-65
2023/09/27 20:51:52;;;;;;;10.88;9.40;;;;;;;21.80;67.01;100221.56;10299242;28;20125;-65
2023/09/27 20:56:54;;;;;;;10.70;9.70;;;;;;;21.68;66.67;100212.31;10300499;28;20171;-65
2023/09/27 21:01:58;;;;;;;11.45;10.30;;;;;;;21.71;67.03;100214.63;10299859;28;20104;-66
2023/09/27 21:06:59;;;;;;;9.60;8.80;;;;;;;21.60;67.61;100199.75;10299652;28;20508;-64
2023/09/27 21:12:00;;;;;;;8.15;7.50;;;;;;;21.53;67.87;100204.28;10308086;28;20160;-63
2023/09/27 21:17:04;;;;;;;9.50;7.75;;;;;;;21.43;67.62;100187.50;10304312;28;20054;-64
2023/09/27 21:22:05;;;;;;;8.73;7.72;;;;;;;21.49;68.09;100197.56;10340697;28;20033;-62
2023/09/27 21:27:06;;;;;;;8.20;7.40;;;;;;;21.36;68.53;100184.75;10353511;28;20135;-63
2023/09/27 21:32:08;;;;;;;7.75;6.63;;;;;;;21.26;68.42;100178.81;10353680;28;20162;-64
2023/09/27 21:37:09;;;;;;;9.38;7.72;;;;;;;21.29;68.88;100186.56;10347643;28;20061;-65
2023/09/27 21:42:11;;;;;;;8.20;7.47;;;;;;;21.22;68.96;100196.50;10335392;28;20305;-64
2023/09/27 21:47:12;;;;;;;9.25;7.97;;;;;;;20.97;69.51;100156.28;10348390;28;20050;-65
2023/09/27 21:52:14;;;;;;;8.65;7.75;;;;;;;20.99;69.58;100170.50;10348697;28;20401;-65
2023/09/27 21:57:15;;;;;;;8.70;7.85;;;;;;;21.00;70.13;100185.66;10345521;28;20133;-66
2023/09/27 22:02:16;;;;;;;8.25;7.45;;;;;;;20.99;70.90;100187.56;10348074;28;20053;-63
2023/09/27 22:07:19;;;;;;;13.20;9.07;;;;;;;20.91;70.50;100179.59;10346866;28;20049;-63
2023/09/27 22:12:21;;;;;;;8.48;7.47;;;;;;;20.79;70.79;100162.16;10340875;28;20251;-65
2023/09/27 22:17:23;;;;;;;7.03;6.35;;;;;;;20.77;71.13;100178.59;10346087;28;20045;-63
2023/09/27 22:22:27;;;;;;;8.75;7.25;;;;;;;20.64;71.19;100164.88;10341973;28;20362;-65
2023/09/27 22:27:28;;;;;;;7.95;7.22;;;;;;;20.58;70.79;100165.66;10333739;28;20182;-64
2023/09/27 22:32:30;;;;;;;8.60;6.97;;;;;;;20.60;70.93;100183.38;10341751;28;20127;-65
2023/09/27 22:37:32;;;;;;;9.35;8.57;;;;;;;20.54;71.19;100176.03;10348581;28;20135;-65
2023/09/27 22:42:37;;;;;;;8.05;7.35;;;;;;;20.41;71.51;100174.00;10345182;28;20052;-64
2023/09/27 22:47:38;;;;;;;8.20;7.40;;;;;;;20.48;71.76;100188.44;10343061;28;20192;-65
2023/09/27 22:52:42;;;;;;;8.93;7.55;;;;;;;20.42;72.15;100181.09;10338928;28;20049;-65
2023/09/27 22:57:44;;;;;;;8.50;7.68;;;;;;;20.29;72.54;100175.50;10325704;28;20049;-65
2023/09/27 23:02:51;;;;;;;9.82;8.70;;;;;;;20.36;73.43;100176.44;10343468;28;20134;-64
2023/09/27 23:07:53;;;;;;;9.65;8.75;;;;;;;20.25;73.80;100172.38;10334234;28;20496;-64
2023/09/27 23:13:03;;;;;;;9.10;8.30;;;;;;;20.26;73.89;100179.44;10336664;28;20060;-64